Woodridge, Illinois
Current Conditions -  °F | °C
As of 3:35 PM on Wednesday 26 Nov 2014 (Local Time) from KLOT Reporting Station
Overcast Overcast  
Wind Chill: 20°   Ceiling: 1800
Heat Index: 27°   Visibility: 10mi
Dew Point: 20°   Wind: 6mph
Humidity: 77%   Direction: 100°E
Pressure: 30.12"   Gusts: NA
Location:  41.75°N, 88.03°W
Report Text: KLOT 262135Z AUTO 10005KT 10SM OVC018 M03/M07 A3012 RMK AO2 T10301066
Loading
Personal Weather Stations






























Interactive Weather Map New forecast layout! Learn more

10-Day Weather Forecast

Advertisements
Track Severe Weather on mobile